Time;durP1;ratioP1;P1;durP2;ratioP2;P2;SDS_P1;SDS_P2;PMS_P1;PMS_P2;Temp;Humidity;BMP_temperature;BMP_pressure;BME280_temperature;BME280_humidity;BME280_pressure;Samples;Min_cycle;Max_cycle;Signal;HPM_P1;HPM_P2
2023/05/23 00:02:06;;;;;;;21.17;11.88;;;;;;;;;;4997835;28;20675;-57
2023/05/23 00:04:34;;;;;;;21.75;12.60;;;;;;;;;;5003504;28;20209;-56
2023/05/23 00:07:03;;;;;;;18.65;11.75;;;;;;;;;;4991907;28;20301;-57
2023/05/23 00:09:30;;;;;;;17.67;11.77;;;;;;;;;;4993990;28;20217;-57
2023/05/23 00:11:57;;;;;;;15.85;10.63;;;;;;;;;;5003692;28;20213;-56
2023/05/23 00:14:24;;;;;;;18.10;11.23;;;;;;;;;;5007487;28;20558;-57
2023/05/23 00:16:51;;;;;;;19.13;11.00;;;;;;;;;;4995807;28;20228;-57
2023/05/23 00:19:18;;;;;;;19.30;11.23;;;;;;;;;;4989974;28;20214;-57
2023/05/23 00:21:48;;;;;;;17.73;11.40;;;;;;;;;;4991356;28;20240;-57
2023/05/23 00:24:17;;;;;;;18.35;11.45;;;;;;;;;;4993022;28;20773;-57
2023/05/23 00:26:44;;;;;;;19.65;10.90;;;;;;;;;;5004713;28;20625;-57
2023/05/23 00:29:14;;;;;;;15.20;10.20;;;;;;;;;;5002620;28;20232;-57
2023/05/23 00:31:41;;;;;;;16.98;10.88;;;;;;;;;;4997585;28;20224;-57
2023/05/23 00:34:09;;;;;;;17.23;10.27;;;;;;;;;;5002661;28;20638;-57
2023/05/23 00:36:36;;;;;;;14.52;9.55;;;;;;;;;;5003439;28;20378;-57
2023/05/23 00:39:03;;;;;;;15.25;9.85;;;;;;;;;;5002867;28;20556;-57
2023/05/23 00:41:32;;;;;;;13.15;9.85;;;;;;;;;;5000139;28;20212;-57
2023/05/23 00:43:59;;;;;;;14.20;10.13;;;;;;;;;;4991539;28;20216;-57
2023/05/23 00:46:26;;;;;;;17.77;10.50;;;;;;;;;;4999734;28;20291;-57
2023/05/23 00:48:54;;;;;;;16.17;10.25;;;;;;;;;;5004500;28;20205;-57
2023/05/23 00:51:21;;;;;;;15.82;10.52;;;;;;;;;;4997444;28;20208;-57
2023/05/23 00:53:48;;;;;;;17.23;10.98;;;;;;;;;;5011491;28;20223;-57
2023/05/23 00:56:15;;;;;;;21.80;11.07;;;;;;;;;;5003025;28;20461;-57
2023/05/23 00:58:44;;;;;;;16.35;10.90;;;;;;;;;;4990779;28;20719;-57
2023/05/23 01:01:11;;;;;;;18.52;10.57;;;;;;;;;;4997837;28;20672;-56
2023/05/23 01:03:38;;;;;;;16.88;10.40;;;;;;;;;;4994963;28;20205;-57
2023/05/23 01:06:06;;;;;;;17.65;10.40;;;;;;;;;;5004222;28;20201;-56
2023/05/23 01:08:33;;;;;;;15.85;10.35;;;;;;;;;;5004967;28;20334;-56
2023/05/23 01:11:02;;;;;;;16.10;10.98;;;;;;;;;;5001248;28;20217;-57
2023/05/23 01:13:32;;;;;;;16.48;10.82;;;;;;;;;;5001211;28;20221;-57
2023/05/23 01:16:03;;;;;;;14.63;10.43;;;;;;;;;;4999971;28;20220;-57
2023/05/23 01:18:34;;;;;;;14.77;9.73;;;;;;;;;;5004876;28;20231;-57
2023/05/23 01:21:04;;;;;;;15.05;9.90;;;;;;;;;;4996799;28;20244;-57
2023/05/23 01:23:46;;;;;;;13.68;9.50;;;;;;;;;;4995240;28;20241;-57
2023/05/23 01:26:28;;;;;;;13.57;9.57;;;;;;;;;;5000567;28;20205;-56
2023/05/23 01:28:59;;;;;;;12.52;9.65;;;;;;;;;;5006192;28;20211;-57
2023/05/23 01:31:28;;;;;;;13.40;10.00;;;;;;;;;;4993152;28;20263;-57
2023/05/23 01:33:55;;;;;;;14.52;9.90;;;;;;;;;;4990382;28;20214;-57
2023/05/23 01:36:22;;;;;;;14.07;9.30;;;;;;;;;;4997104;28;20225;-57
2023/05/23 01:38:49;;;;;;;16.17;9.82;;;;;;;;;;5004856;28;20255;-56
2023/05/23 01:41:16;;;;;;;13.65;9.25;;;;;;;;;;5002825;28;20708;-57
2023/05/23 01:43:44;;;;;;;10.90;8.88;;;;;;;;;;5004271;28;20213;-57
2023/05/23 01:46:12;;;;;;;11.48;8.80;;;;;;;;;;5002551;28;20582;-56
2023/05/23 01:48:40;;;;;;;11.30;9.02;;;;;;;;;;4998786;28;20591;-57
2023/05/23 01:51:07;;;;;;;14.48;9.77;;;;;;;;;;4998775;28;20217;-57
2023/05/23 01:53:34;;;;;;;15.20;9.43;;;;;;;;;;4995557;28;20252;-57
2023/05/23 01:56:02;;;;;;;12.88;9.73;;;;;;;;;;4990501;28;20229;-57
2023/05/23 01:58:29;;;;;;;14.98;9.88;;;;;;;;;;4988493;28;20233;-57
2023/05/23 02:00:56;;;;;;;13.48;8.95;;;;;;;;;;4995468;28;20299;-57
2023/05/23 02:03:25;;;;;;;16.92;9.63;;;;;;;;;;5004684;28;20631;-57
2023/05/23 02:05:52;;;;;;;11.98;8.90;;;;;;;;;;4991280;28;20264;-57
2023/05/23 02:08:19;;;;;;;13.30;9.73;;;;;;;;;;4988633;28;20747;-57
2023/05/23 02:10:46;;;;;;;12.82;9.95;;;;;;;;;;4990871;28;20216;-57
2023/05/23 02:13:13;;;;;;;12.00;8.98;;;;;;;;;;4996488;28;20212;-57
2023/05/23 02:15:40;;;;;;;14.45;9.82;;;;;;;;;;5005320;28;20593;-57
2023/05/23 02:18:07;;;;;;;15.68;10.38;;;;;;;;;;4996847;28;20206;-57
2023/05/23 02:20:35;;;;;;;14.10;10.10;;;;;;;;;;4992104;28;20229;-57
2023/05/23 02:23:02;;;;;;;13.73;9.65;;;;;;;;;;5007126;28;20233;-57
2023/05/23 02:25:29;;;;;;;14.00;8.90;;;;;;;;;;5007982;28;20212;-56
2023/05/23 02:27:57;;;;;;;12.82;9.45;;;;;;;;;;5001813;28;20687;-57
2023/05/23 02:30:24;;;;;;;12.82;8.65;;;;;;;;;;4993434;28;20213;-57
2023/05/23 02:32:52;;;;;;;11.20;8.60;;;;;;;;;;5008967;28;20855;-57
2023/05/23 02:35:19;;;;;;;10.38;8.27;;;;;;;;;;4994635;28;20209;-57
2023/05/23 02:37:47;;;;;;;11.48;8.98;;;;;;;;;;4993884;28;20214;-56
2023/05/23 02:40:14;;;;;;;11.57;8.40;;;;;;;;;;4994024;28;20205;-57
2023/05/23 02:42:41;;;;;;;12.45;7.95;;;;;;;;;;5005764;28;20253;-57
2023/05/23 02:45:09;;;;;;;12.05;8.27;;;;;;;;;;4992369;28;20202;-57
2023/05/23 02:47:36;;;;;;;10.70;7.93;;;;;;;;;;4997789;28;20209;-57
2023/05/23 02:50:03;;;;;;;12.02;7.32;;;;;;;;;;5006704;28;20583;-56
2023/05/23 02:52:30;;;;;;;8.75;6.95;;;;;;;;;;5002904;28;20757;-57
2023/05/23 02:54:59;;;;;;;12.45;7.72;;;;;;;;;;5002703;28;20202;-57
2023/05/23 02:57:26;;;;;;;9.05;6.78;;;;;;;;;;5004614;28;20234;-57
2023/05/23 02:59:53;;;;;;;8.50;6.55;;;;;;;;;;5003344;28;20208;-57
2023/05/23 03:02:21;;;;;;;8.80;7.20;;;;;;;;;;4998695;28;20209;-57
2023/05/23 03:04:49;;;;;;;9.40;6.75;;;;;;;;;;4993863;28;20205;-57
2023/05/23 03:07:16;;;;;;;8.45;6.88;;;;;;;;;;5004384;28;20215;-57
2023/05/23 03:09:43;;;;;;;8.65;6.82;;;;;;;;;;4989175;28;20209;-57
2023/05/23 03:12:12;;;;;;;7.30;5.40;;;;;;;;;;5003766;28;20220;-57
2023/05/23 03:14:39;;;;;;;7.25;6.20;;;;;;;;;;5009058;28;20220;-57
2023/05/23 03:17:06;;;;;;;7.75;5.88;;;;;;;;;;4999138;28;20225;-57
2023/05/23 03:19:33;;;;;;;10.95;6.30;;;;;;;;;;4997451;28;20229;-57
2023/05/23 03:22:00;;;;;;;8.43;6.38;;;;;;;;;;4996357;28;20223;-58
2023/05/23 03:24:27;;;;;;;8.00;6.85;;;;;;;;;;5006882;28;20214;-57
2023/05/23 03:26:54;;;;;;;6.13;5.32;;;;;;;;;;5003358;28;20274;-57
2023/05/23 03:29:22;;;;;;;7.25;5.63;;;;;;;;;;4997526;28;20583;-57
2023/05/23 03:31:49;;;;;;;6.75;5.80;;;;;;;;;;5005789;28;20218;-57
2023/05/23 03:34:16;;;;;;;5.85;5.25;;;;;;;;;;5007616;28;20211;-55
2023/05/23 03:36:44;;;;;;;8.27;5.82;;;;;;;;;;5009451;28;20225;-57
2023/05/23 03:39:11;;;;;;;6.30;5.30;;;;;;;;;;5020124;28;20998;-57
2023/05/23 03:41:38;;;;;;;10.30;5.80;;;;;;;;;;4995541;28;20223;-56
2023/05/23 03:44:05;;;;;;;7.70;6.22;;;;;;;;;;5006326;28;20742;-56
2023/05/23 03:46:33;;;;;;;9.15;6.32;;;;;;;;;;5001015;28;20586;-57
2023/05/23 03:49:00;;;;;;;11.80;6.72;;;;;;;;;;4997562;28;20653;-57
2023/05/23 03:51:28;;;;;;;8.38;5.80;;;;;;;;;;5003901;28;20209;-57
2023/05/23 03:53:55;;;;;;;8.93;6.90;;;;;;;;;;4993499;28;20213;-57
2023/05/23 03:56:22;;;;;;;10.65;6.80;;;;;;;;;;4994604;28;20230;-56
2023/05/23 03:58:49;;;;;;;10.95;8.07;;;;;;;;;;4989404;28;20522;-57
2023/05/23 04:01:19;;;;;;;10.35;7.82;;;;;;;;;;5006332;28;20212;-57
2023/05/23 04:03:48;;;;;;;10.68;7.18;;;;;;;;;;4998797;28;20220;-57
2023/05/23 04:06:16;;;;;;;12.07;8.10;;;;;;;;;;5000175;28;20213;-56
2023/05/23 04:08:44;;;;;;;10.13;7.55;;;;;;;;;;4998482;28;20209;-56
2023/05/23 04:11:11;;;;;;;12.32;7.82;;;;;;;;;;5007244;28;20209;-56
2023/05/23 04:13:38;;;;;;;9.95;7.20;;;;;;;;;;4996239;28;20591;-57
2023/05/23 04:16:05;;;;;;;9.48;7.55;;;;;;;;;;5003387;28;20232;-56
2023/05/23 04:18:33;;;;;;;10.98;7.80;;;;;;;;;;5015513;28;20239;-57
2023/05/23 04:21:01;;;;;;;11.55;7.40;;;;;;;;;;4989002;28;20806;-57
2023/05/23 04:23:28;;;;;;;11.18;7.68;;;;;;;;;;5003733;28;21233;-57
2023/05/23 04:25:56;;;;;;;10.90;7.32;;;;;;;;;;4989374;28;20210;-56
2023/05/23 04:28:23;;;;;;;10.77;7.28;;;;;;;;;;4998377;28;20198;-57
2023/05/23 04:30:50;;;;;;;10.25;7.07;;;;;;;;;;4988900;28;20221;-57
2023/05/23 04:33:18;;;;;;;10.68;8.15;;;;;;;;;;4989130;28;20224;-57
2023/05/23 04:35:45;;;;;;;11.23;7.78;;;;;;;;;;4990557;28;20220;-57
2023/05/23 04:38:14;;;;;;;11.68;8.27;;;;;;;;;;5005608;28;20209;-57
2023/05/23 04:40:41;;;;;;;11.07;7.47;;;;;;;;;;5004530;28;20214;-57
2023/05/23 04:43:08;;;;;;;13.10;8.02;;;;;;;;;;5004595;28;20220;-57
2023/05/23 04:45:36;;;;;;;15.10;8.35;;;;;;;;;;5002922;28;20304;-56
2023/05/23 04:48:03;;;;;;;13.00;8.07;;;;;;;;;;4994250;28;20193;-57
2023/05/23 04:50:32;;;;;;;11.65;8.20;;;;;;;;;;5007506;28;20303;-57
2023/05/23 04:52:59;;;;;;;10.30;7.32;;;;;;;;;;5006765;28;20205;-57
2023/05/23 04:55:27;;;;;;;8.88;6.70;;;;;;;;;;5006802;28;20220;-57
2023/05/23 04:57:55;;;;;;;8.00;6.20;;;;;;;;;;4991803;28;20225;-57
2023/05/23 05:00:22;;;;;;;10.02;6.30;;;;;;;;;;4994102;28;20219;-57
2023/05/23 05:02:49;;;;;;;7.00;5.63;;;;;;;;;;4997802;28;20224;-57
2023/05/23 05:05:16;;;;;;;8.68;6.07;;;;;;;;;;4998322;28;20224;-58
2023/05/23 05:07:43;;;;;;;8.43;6.53;;;;;;;;;;4987897;28;20202;-58
2023/05/23 05:10:15;;;;;;;5.45;4.88;;;;;;;;;;4992582;28;20223;-58
2023/05/23 05:12:44;;;;;;;6.78;5.45;;;;;;;;;;5003562;28;20650;-58
2023/05/23 05:15:11;;;;;;;9.63;6.55;;;;;;;;;;4999729;28;20954;-58
2023/05/23 05:17:38;;;;;;;6.15;5.47;;;;;;;;;;5005151;28;20231;-58
2023/05/23 05:20:07;;;;;;;6.15;5.55;;;;;;;;;;5004861;28;20570;-58
2023/05/23 05:22:35;;;;;;;6.90;5.40;;;;;;;;;;4993830;28;20264;-58
2023/05/23 05:25:02;;;;;;;9.77;6.22;;;;;;;;;;4996498;28;20221;-57
2023/05/23 05:27:29;;;;;;;5.90;5.28;;;;;;;;;;4990093;28;20206;-58
2023/05/23 05:30:03;;;;;;;6.78;5.75;;;;;;;;;;4999689;28;20204;-58
2023/05/23 05:32:32;;;;;;;6.43;5.70;;;;;;;;;;5001714;28;20690;-59
2023/05/23 05:34:59;;;;;;;8.55;5.80;;;;;;;;;;4988161;28;20799;-71
2023/05/23 05:37:26;;;;;;;5.68;4.90;;;;;;;;;;4993867;28;20225;-58
2023/05/23 05:39:53;;;;;;;6.93;5.15;;;;;;;;;;5006335;28;20651;-59
2023/05/23 05:42:20;;;;;;;10.95;5.85;;;;;;;;;;5000437;28;20750;-58
2023/05/23 05:44:48;;;;;;;5.15;4.68;;;;;;;;;;5001394;28;20300;-59
2023/05/23 05:47:16;;;;;;;5.57;5.05;;;;;;;;;;4987598;28;20209;-60
2023/05/23 05:49:43;;;;;;;6.80;5.60;;;;;;;;;;4989228;28;20214;-60
2023/05/23 05:52:10;;;;;;;10.18;5.32;;;;;;;;;;4990605;28;20304;-60
2023/05/23 05:54:38;;;;;;;6.32;5.15;;;;;;;;;;5008886;28;20215;-60
2023/05/23 05:57:05;;;;;;;6.63;5.13;;;;;;;;;;5011543;28;20462;-59
2023/05/23 05:59:32;;;;;;;5.55;5.05;;;;;;;;;;4995090;28;20217;-60
2023/05/23 06:01:59;;;;;;;6.15;4.50;;;;;;;;;;4993273;28;20197;-59
2023/05/23 06:04:28;;;;;;;6.57;5.38;;;;;;;;;;4991345;28;20212;-60
2023/05/23 06:06:55;;;;;;;5.47;5.00;;;;;;;;;;5003039;28;20208;-59
2023/05/23 06:09:22;;;;;;;6.03;5.10;;;;;;;;;;5010550;28;20216;-59
2023/05/23 06:11:49;;;;;;;4.60;4.30;;;;;;;;;;5004409;28;20213;-59
2023/05/23 06:14:16;;;;;;;4.55;3.70;;;;;;;;;;5010740;28;20220;-60
2023/05/23 06:16:43;;;;;;;3.97;3.60;;;;;;;;;;4997009;28;20226;-60
2023/05/23 06:19:10;;;;;;;5.05;4.28;;;;;;;;;;4991109;28;20217;-59
2023/05/23 06:21:38;;;;;;;4.35;3.70;;;;;;;;;;4998535;28;20276;-60
2023/05/23 06:24:06;;;;;;;3.97;3.67;;;;;;;;;;5011805;28;20802;-60
2023/05/23 06:26:33;;;;;;;4.80;4.43;;;;;;;;;;5018995;28;20204;-60
2023/05/23 06:29:00;;;;;;;4.25;3.95;;;;;;;;;;5027907;28;20243;-59
2023/05/23 06:31:27;;;;;;;4.80;4.10;;;;;;;;;;5010028;28;20626;-59
2023/05/23 06:33:54;;;;;;;4.00;3.80;;;;;;;;;;5009895;28;20220;-60
2023/05/23 06:36:21;;;;;;;3.95;3.70;;;;;;;;;;5010236;28;20209;-60
2023/05/23 06:38:49;;;;;;;3.63;3.38;;;;;;;;;;5019169;28;20200;-59
2023/05/23 06:41:16;;;;;;;3.97;3.67;;;;;;;;;;5025217;28;20235;-59
2023/05/23 06:43:43;;;;;;;3.90;3.55;;;;;;;;;;5010222;28;20216;-60
2023/05/23 06:46:10;;;;;;;3.70;3.50;;;;;;;;;;5009697;28;20922;-60
2023/05/23 06:48:37;;;;;;;3.80;3.50;;;;;;;;;;5009966;28;20639;-59
2023/05/23 06:51:05;;;;;;;4.00;3.70;;;;;;;;;;5029444;28;20216;-59
2023/05/23 06:53:32;;;;;;;4.63;4.10;;;;;;;;;;5017227;28;20694;-60
2023/05/23 06:56:00;;;;;;;4.30;3.90;;;;;;;;;;5009479;28;20205;-59
2023/05/23 06:58:28;;;;;;;3.92;3.45;;;;;;;;;;5009745;28;20594;-59
2023/05/23 07:00:55;;;;;;;4.28;4.03;;;;;;;;;;5010169;28;20645;-60
2023/05/23 07:03:22;;;;;;;4.13;3.83;;;;;;;;;;5005458;28;20214;-60
2023/05/23 07:05:50;;;;;;;4.18;3.88;;;;;;;;;;5008456;28;20217;-60
2023/05/23 07:08:17;;;;;;;4.65;4.25;;;;;;;;;;5007277;28;20392;-57
2023/05/23 07:10:44;;;;;;;4.60;4.28;;;;;;;;;;5004410;28;20201;-57
2023/05/23 07:13:12;;;;;;;4.25;3.88;;;;;;;;;;4989188;28;20214;-57
2023/05/23 07:15:39;;;;;;;3.15;2.90;;;;;;;;;;4992892;28;20824;-58
2023/05/23 07:18:06;;;;;;;3.00;2.90;;;;;;;;;;5009015;28;20339;-58
2023/05/23 07:20:33;;;;;;;3.97;3.67;;;;;;;;;;5003687;28;20233;-58
2023/05/23 07:23:01;;;;;;;3.53;3.33;;;;;;;;;;4988480;28;20747;-58
2023/05/23 07:25:27;;;;;;;3.72;3.50;;;;;;;;;;4989952;28;20297;-57
2023/05/23 07:27:55;;;;;;;4.15;3.85;;;;;;;;;;5000731;28;20208;-58
2023/05/23 07:30:23;;;;;;;3.13;2.95;;;;;;;;;;5008227;28;20209;-58
2023/05/23 07:32:51;;;;;;;2.40;2.30;;;;;;;;;;5005486;28;20213;-58
2023/05/23 07:35:22;;;;;;;3.22;3.03;;;;;;;;;;5001026;28;20300;-57
2023/05/23 07:37:50;;;;;;;2.67;2.58;;;;;;;;;;5001384;28;20280;-57
2023/05/23 07:40:17;;;;;;;3.22;3.03;;;;;;;;;;5003273;28;20255;-57
2023/05/23 07:42:44;;;;;;;3.67;3.38;;;;;;;;;;5004755;28;20217;-57
2023/05/23 07:45:12;;;;;;;2.95;2.75;;;;;;;;;;5006926;28;20220;-58
2023/05/23 07:47:41;;;;;;;2.60;2.50;;;;;;;;;;5006920;28;20209;-57
2023/05/23 07:50:08;;;;;;;1.80;1.77;;;;;;;;;;5007239;28;20236;-57
2023/05/23 07:52:36;;;;;;;2.28;2.15;;;;;;;;;;5006185;28;20227;-56
2023/05/23 07:55:03;;;;;;;2.03;1.92;;;;;;;;;;5003809;28;20221;-56
2023/05/23 07:57:30;;;;;;;2.42;2.30;;;;;;;;;;4999296;28;20316;-56
2023/05/23 07:59:57;;;;;;;2.55;2.15;;;;;;;;;;5006699;28;20220;-56
2023/05/23 08:02:24;;;;;;;2.53;2.42;;;;;;;;;;5005792;28;20216;-57
2023/05/23 08:04:53;;;;;;;2.33;2.22;;;;;;;;;;5006524;28;20754;-56
2023/05/23 08:07:20;;;;;;;2.55;2.45;;;;;;;;;;5006323;28;20267;-57
2023/05/23 08:09:47;;;;;;;3.47;2.50;;;;;;;;;;5000626;28;20637;-60
2023/05/23 08:12:15;;;;;;;2.47;2.30;;;;;;;;;;4999021;28;20723;-57
2023/05/23 08:14:42;;;;;;;3.10;2.90;;;;;;;;;;5005673;28;20291;-57
2023/05/23 08:17:09;;;;;;;2.22;2.13;;;;;;;;;;5006584;28;20208;-58
2023/05/23 08:19:36;;;;;;;2.55;2.45;;;;;;;;;;4995211;28;20215;-58
2023/05/23 08:22:04;;;;;;;2.63;2.53;;;;;;;;;;4987637;28;20229;-56
2023/05/23 08:24:33;;;;;;;2.50;2.40;;;;;;;;;;4997601;28;20714;-56
2023/05/23 08:27:00;;;;;;;2.00;2.00;;;;;;;;;;5007205;28;20282;-56
2023/05/23 08:29:27;;;;;;;2.65;2.42;;;;;;;;;;5006408;28;20237;-56
2023/05/23 08:31:54;;;;;;;2.30;2.20;;;;;;;;;;5007456;28;20221;-56
2023/05/23 08:34:21;;;;;;;5.85;2.08;;;;;;;;;;4999271;28;20260;-57
2023/05/23 08:36:48;;;;;;;1.95;1.88;;;;;;;;;;5006722;28;20282;-59
2023/05/23 08:39:16;;;;;;;2.35;2.25;;;;;;;;;;5000888;28;20232;-56
2023/05/23 08:41:43;;;;;;;2.20;2.10;;;;;;;;;;5004279;28;20228;-57
2023/05/23 08:44:11;;;;;;;2.03;1.92;;;;;;;;;;5006077;28;20713;-57
2023/05/23 08:46:40;;;;;;;2.10;2.00;;;;;;;;;;4998496;28;20220;-56
2023/05/23 08:49:08;;;;;;;2.15;2.05;;;;;;;;;;4999609;28;20295;-56
2023/05/23 08:51:36;;;;;;;2.35;2.25;;;;;;;;;;5000021;28;20228;-57
2023/05/23 08:54:04;;;;;;;2.30;2.30;;;;;;;;;;5002873;28;20945;-57
2023/05/23 08:56:33;;;;;;;2.40;2.33;;;;;;;;;;5000760;28;20231;-57
2023/05/23 08:59:01;;;;;;;2.45;2.35;;;;;;;;;;4995969;28;20233;-57
2023/05/23 09:01:28;;;;;;;1.75;1.75;;;;;;;;;;4998001;28;20218;-57
2023/05/23 09:03:59;;;;;;;1.92;1.83;;;;;;;;;;4995140;28;20213;-57
2023/05/23 09:06:26;;;;;;;2.00;2.00;;;;;;;;;;5004178;28;20208;-57
2023/05/23 09:11:59;;;;;;;1.75;1.63;;;;;;;;;;5006348;28;20255;-58
2023/05/23 09:14:29;;;;;;;1.60;1.60;;;;;;;;;;4990810;28;20308;-57
2023/05/23 09:17:00;;;;;;;1.80;1.80;;;;;;;;;;4989833;28;20205;-57
2023/05/23 09:19:27;;;;;;;1.80;1.70;;;;;;;;;;5000769;28;20225;-57
2023/05/23 09:21:55;;;;;;;1.77;1.77;;;;;;;;;;5002983;28;20205;-58
2023/05/23 09:24:22;;;;;;;1.80;1.70;;;;;;;;;;4986814;28;20749;-56
2023/05/23 09:26:49;;;;;;;1.90;1.90;;;;;;;;;;4987800;28;20206;-57
2023/05/23 09:29:19;;;;;;;1.83;1.73;;;;;;;;;;4986906;28;20225;-56
2023/05/23 09:31:46;;;;;;;1.80;1.80;;;;;;;;;;4998397;28;20294;-56
2023/05/23 09:34:13;;;;;;;1.83;1.83;;;;;;;;;;5006317;28;20212;-56
2023/05/23 09:36:42;;;;;;;2.03;2.00;;;;;;;;;;4996207;28;20295;-56
2023/05/23 09:39:12;;;;;;;2.17;2.08;;;;;;;;;;4986658;28;20233;-57
2023/05/23 09:41:39;;;;;;;2.17;2.08;;;;;;;;;;4995864;28;20213;-56
2023/05/23 09:44:07;;;;;;;2.03;2.03;;;;;;;;;;4993774;28;20657;-56
2023/05/23 09:46:35;;;;;;;1.40;1.40;;;;;;;;;;4987804;28;20202;-56
2023/05/23 09:49:02;;;;;;;1.63;1.63;;;;;;;;;;4986957;28;20213;-56
2023/05/23 09:51:30;;;;;;;2.00;1.90;;;;;;;;;;4992000;28;20206;-55
2023/05/23 09:53:57;;;;;;;1.92;1.92;;;;;;;;;;4986400;28;20267;-56
2023/05/23 09:56:25;;;;;;;2.03;1.92;;;;;;;;;;4993521;28;20301;-56
2023/05/23 09:58:53;;;;;;;1.73;1.73;;;;;;;;;;5006328;28;20233;-56
2023/05/23 10:01:22;;;;;;;1.75;1.65;;;;;;;;;;4998767;28;20205;-56
2023/05/23 10:03:53;;;;;;;2.03;1.80;;;;;;;;;;4986118;28;20591;-56
2023/05/23 10:06:24;;;;;;;1.85;1.75;;;;;;;;;;4993059;28;20212;-56
2023/05/23 10:08:55;;;;;;;2.97;1.92;;;;;;;;;;5006140;28;20208;-56
2023/05/23 10:11:37;;;;;;;1.98;1.88;;;;;;;;;;5005316;28;20320;-55
2023/05/23 10:14:06;;;;;;;3.63;1.88;;;;;;;;;;5018086;28;20216;-56
2023/05/23 10:16:39;;;;;;;2.03;1.92;;;;;;;;;;5010315;28;20213;-56
2023/05/23 10:19:13;;;;;;;1.70;1.60;;;;;;;;;;5003020;28;20319;-56
2023/05/23 10:21:43;;;;;;;2.83;2.28;;;;;;;;;;5005050;28;20234;-56
2023/05/23 10:24:10;;;;;;;2.10;2.00;;;;;;;;;;5006048;28;20347;-56
2023/05/23 10:26:37;;;;;;;2.33;2.13;;;;;;;;;;4991394;28;20652;-56
2023/05/23 10:29:05;;;;;;;2.30;2.13;;;;;;;;;;4986991;28;20894;-55
2023/05/23 10:31:32;;;;;;;2.08;1.98;;;;;;;;;;4988031;28;20301;-56
2023/05/23 10:34:03;;;;;;;1.92;1.83;;;;;;;;;;4987185;28;20225;-56
2023/05/23 10:36:35;;;;;;;2.90;2.70;;;;;;;;;;5005316;28;20212;-56
2023/05/23 10:39:05;;;;;;;1.92;1.83;;;;;;;;;;5008241;28;20736;-56
2023/05/23 10:41:35;;;;;;;2.30;2.20;;;;;;;;;;5005764;28;20235;-56
2023/05/23 10:44:05;;;;;;;2.00;1.90;;;;;;;;;;5009424;28;20300;-56
2023/05/23 10:46:47;;;;;;;2.05;1.92;;;;;;;;;;5020177;28;20212;-56
2023/05/23 10:49:14;;;;;;;1.77;1.77;;;;;;;;;;5029061;28;20211;-56
2023/05/23 10:51:42;;;;;;;2.45;2.35;;;;;;;;;;5028845;28;20219;-56
2023/05/23 10:54:11;;;;;;;1.77;1.77;;;;;;;;;;5028446;28;20226;-56
2023/05/23 10:56:38;;;;;;;2.20;2.20;;;;;;;;;;5013283;28;20316;-56
2023/05/23 10:59:06;;;;;;;2.08;2.08;;;;;;;;;;5020218;28;20330;-55
2023/05/23 11:01:39;;;;;;;2.78;2.55;;;;;;;;;;5009211;28;20213;-56
2023/05/23 11:04:07;;;;;;;3.45;3.15;;;;;;;;;;5008503;28;20208;-55
2023/05/23 11:06:39;;;;;;;3.33;3.13;;;;;;;;;;5006988;28;20678;-56
2023/05/23 11:09:11;;;;;;;3.30;2.97;;;;;;;;;;5005522;28;20229;-56
2023/05/23 11:11:52;;;;;;;3.53;3.33;;;;;;;;;;5003723;28;21721;-55
2023/05/23 11:14:19;;;;;;;3.00;2.80;;;;;;;;;;5005199;28;20282;-56
2023/05/23 11:16:47;;;;;;;3.72;3.20;;;;;;;;;;5005938;28;20212;-56
2023/05/23 11:19:26;;;;;;;3.60;3.30;;;;;;;;;;5000897;28;20233;-56
2023/05/23 11:21:54;;;;;;;4.10;2.72;;;;;;;;;;5003367;28;20278;-56
2023/05/23 11:24:23;;;;;;;2.83;2.72;;;;;;;;;;5001520;28;20691;-55
2023/05/23 11:26:54;;;;;;;2.97;2.80;;;;;;;;;;4997977;28;20279;-55
2023/05/23 11:29:21;;;;;;;2.90;2.80;;;;;;;;;;4990690;28;20309;-56
2023/05/23 11:31:48;;;;;;;3.42;3.22;;;;;;;;;;4989111;28;20292;-56
2023/05/23 11:34:15;;;;;;;4.50;3.40;;;;;;;;;;5001635;28;20229;-56
2023/05/23 11:36:42;;;;;;;2.90;2.78;;;;;;;;;;5016758;28;20722;-56
2023/05/23 11:39:09;;;;;;;3.60;3.30;;;;;;;;;;5013726;28;20279;-56
2023/05/23 11:41:38;;;;;;;3.92;3.50;;;;;;;;;;5015245;28;20562;-56
2023/05/23 11:44:11;;;;;;;2.45;2.30;;;;;;;;;;5002254;28;20206;-56
2023/05/23 11:46:39;;;;;;;2.45;2.35;;;;;;;;;;5005713;28;20263;-57
2023/05/23 11:49:11;;;;;;;2.47;2.38;;;;;;;;;;4995791;28;20214;-57
2023/05/23 11:51:38;;;;;;;2.58;2.38;;;;;;;;;;5010629;28;20292;-56
2023/05/23 11:54:05;;;;;;;1.55;1.55;;;;;;;;;;5001529;28;20212;-56
2023/05/23 11:56:32;;;;;;;1.75;1.70;;;;;;;;;;5002315;28;20578;-56
2023/05/23 11:59:01;;;;;;;4.95;2.25;;;;;;;;;;4999363;28;20750;-56
2023/05/23 12:01:32;;;;;;;1.63;1.52;;;;;;;;;;4999298;28;20209;-57
2023/05/23 12:03:59;;;;;;;1.73;1.60;;;;;;;;;;4999098;28;20201;-57
2023/05/23 12:06:26;;;;;;;2.22;2.03;;;;;;;;;;4997921;28;20309;-56
2023/05/23 12:08:53;;;;;;;1.70;1.70;;;;;;;;;;5004184;28;20224;-56
2023/05/23 12:11:22;;;;;;;2.03;1.88;;;;;;;;;;5002908;28;20633;-56
2023/05/23 12:13:49;;;;;;;1.60;1.60;;;;;;;;;;5001919;28;20764;-56
2023/05/23 12:16:18;;;;;;;2.25;2.08;;;;;;;;;;4998693;28;20209;-56
2023/05/23 12:18:45;;;;;;;2.90;2.80;;;;;;;;;;4996974;28;20287;-56
2023/05/23 12:21:12;;;;;;;2.95;2.75;;;;;;;;;;4993094;28;20279;-56
2023/05/23 12:23:40;;;;;;;2.80;2.70;;;;;;;;;;5006071;28;20244;-55
2023/05/23 12:26:12;;;;;;;3.88;2.22;;;;;;;;;;5005861;28;20296;-56
2023/05/23 12:28:39;;;;;;;2.60;2.50;;;;;;;;;;5003015;28;20200;-56
2023/05/23 12:31:10;;;;;;;2.35;2.25;;;;;;;;;;5002152;28;20212;-56
2023/05/23 12:33:41;;;;;;;1.83;1.80;;;;;;;;;;4990095;28;20217;-57
2023/05/23 12:36:08;;;;;;;1.73;1.73;;;;;;;;;;4987236;28;20332;-56
2023/05/23 12:38:36;;;;;;;1.52;1.52;;;;;;;;;;4996216;28;20213;-60
2023/05/23 12:41:10;;;;;;;1.70;1.70;;;;;;;;;;4994159;28;20214;-57
2023/05/23 12:43:40;;;;;;;1.85;1.63;;;;;;;;;;4993560;28;20232;-57
2023/05/23 12:46:07;;;;;;;1.52;1.52;;;;;;;;;;5006812;28;20217;-57
2023/05/23 12:48:34;;;;;;;4.20;1.85;;;;;;;;;;4989921;28;20245;-57
2023/05/23 12:51:04;;;;;;;1.88;1.70;;;;;;;;;;5001137;28;20217;-56
2023/05/23 12:53:31;;;;;;;1.30;1.30;;;;;;;;;;4991482;28;20213;-57
2023/05/23 12:55:58;;;;;;;0.98;0.98;;;;;;;;;;5000974;28;20228;-56
2023/05/23 12:58:25;;;;;;;1.05;1.05;;;;;;;;;;5004800;28;20670;-56
2023/05/23 13:00:52;;;;;;;1.50;1.50;;;;;;;;;;5000576;28;20206;-56
2023/05/23 13:03:19;;;;;;;1.13;1.13;;;;;;;;;;4989161;28;20220;-57
2023/05/23 13:05:46;;;;;;;1.02;1.02;;;;;;;;;;5009850;28;20305;-57
2023/05/23 13:08:15;;;;;;;1.58;1.33;;;;;;;;;;4991591;28;20651;-56
2023/05/23 13:10:42;;;;;;;1.00;1.00;;;;;;;;;;5001970;28;20208;-57
2023/05/23 13:13:09;;;;;;;1.10;1.10;;;;;;;;;;5001941;28;20213;-56
2023/05/23 13:15:37;;;;;;;1.20;1.20;;;;;;;;;;4996104;28;20240;-56
2023/05/23 13:18:04;;;;;;;1.10;1.10;;;;;;;;;;4999251;28;20295;-57
2023/05/23 13:20:31;;;;;;;1.45;1.35;;;;;;;;;;5006106;28;20236;-57
2023/05/23 13:22:58;;;;;;;1.42;1.30;;;;;;;;;;5004592;28;20236;-58
2023/05/23 13:25:27;;;;;;;1.10;1.10;;;;;;;;;;4986458;28;20209;-59
2023/05/23 13:27:54;;;;;;;2.42;1.35;;;;;;;;;;5001590;28;20236;-57
2023/05/23 13:30:24;;;;;;;1.33;1.33;;;;;;;;;;5003374;28;20259;-57
2023/05/23 13:32:51;;;;;;;1.30;1.25;;;;;;;;;;5000102;28;20209;-57
2023/05/23 13:35:18;;;;;;;2.00;1.90;;;;;;;;;;5001600;28;20205;-57
2023/05/23 13:37:45;;;;;;;1.60;1.60;;;;;;;;;;5005432;28;20406;-58
2023/05/23 13:40:13;;;;;;;1.35;1.35;;;;;;;;;;4989145;28;20236;-57
2023/05/23 13:42:41;;;;;;;1.88;1.77;;;;;;;;;;4998550;28;20296;-57
2023/05/23 13:45:09;;;;;;;1.98;1.60;;;;;;;;;;4986911;28;20264;-57
2023/05/23 13:47:36;;;;;;;1.77;1.67;;;;;;;;;;5004551;28;20219;-58
2023/05/23 13:50:03;;;;;;;1.85;1.75;;;;;;;;;;4993078;28;20197;-57
2023/05/23 13:52:30;;;;;;;3.92;1.98;;;;;;;;;;4986955;28;20455;-57
2023/05/23 13:54:58;;;;;;;2.42;2.33;;;;;;;;;;4997954;28;20679;-57
2023/05/23 13:57:25;;;;;;;2.20;2.10;;;;;;;;;;5002813;28;20233;-56
2023/05/23 13:59:54;;;;;;;2.60;2.40;;;;;;;;;;5004977;28;20609;-58
2023/05/23 14:02:21;;;;;;;2.13;2.03;;;;;;;;;;4997400;28;20283;-57
2023/05/23 14:04:48;;;;;;;3.67;2.30;;;;;;;;;;5003544;28;20691;-57
2023/05/23 14:07:16;;;;;;;2.35;2.13;;;;;;;;;;5004098;28;20213;-58
2023/05/23 14:09:43;;;;;;;2.20;2.10;;;;;;;;;;5005994;28;20201;-57
2023/05/23 14:12:10;;;;;;;2.08;1.98;;;;;;;;;;5004557;28;20331;-57
2023/05/23 14:14:38;;;;;;;3.03;2.47;;;;;;;;;;5009406;28;20708;-66
2023/05/23 14:17:06;;;;;;;2.60;2.40;;;;;;;;;;5006856;28;20205;-57
2023/05/23 14:19:36;;;;;;;3.38;2.78;;;;;;;;;;5004074;28;20229;-58
2023/05/23 14:22:03;;;;;;;2.63;2.05;;;;;;;;;;4989969;28;20252;-57
2023/05/23 14:24:30;;;;;;;2.45;2.35;;;;;;;;;;5007079;28;20213;-57
2023/05/23 14:26:57;;;;;;;2.40;2.30;;;;;;;;;;5008354;28;20710;-57
2023/05/23 14:29:25;;;;;;;3.10;2.90;;;;;;;;;;5004851;28;20332;-57
2023/05/23 14:31:52;;;;;;;3.92;2.70;;;;;;;;;;5006887;28;20259;-57
2023/05/23 14:34:20;;;;;;;3.40;3.10;;;;;;;;;;4990753;28;20218;-56
2023/05/23 14:36:47;;;;;;;2.53;2.42;;;;;;;;;;4995995;28;20212;-57
2023/05/23 14:39:15;;;;;;;3.15;2.80;;;;;;;;;;5005791;28;20209;-58
2023/05/23 14:41:42;;;;;;;3.40;3.15;;;;;;;;;;5004349;28;20297;-57
2023/05/23 14:44:09;;;;;;;3.72;3.10;;;;;;;;;;5004311;28;20220;-57
2023/05/23 14:46:36;;;;;;;3.42;3.17;;;;;;;;;;5004762;28;20232;-57